sensor_id;sensor_type;location;lat;lon;timestamp;pressure;altitude;pressure_sealevel;temperature;humidity
9141;BME280;46330;50.822;7.126;2023-02-08T00:02:19;103217.81;;;-1.85;79.08
9141;BME280;46330;50.822;7.126;2023-02-08T00:04:49;103225.50;;;-1.85;79.07
9141;BME280;46330;50.822;7.126;2023-02-08T00:07:17;103233.97;;;-1.86;79.29
9141;BME280;46330;50.822;7.126;2023-02-08T00:09:45;103230.63;;;-1.85;79.41
9141;BME280;46330;50.822;7.126;2023-02-08T00:12:12;103231.31;;;-1.88;79.83
9141;BME280;46330;50.822;7.126;2023-02-08T00:14:40;103223.19;;;-1.94;80.39
9141;BME280;46330;50.822;7.126;2023-02-08T00:17:08;103225.63;;;-1.95;80.59
9141;BME280;46330;50.822;7.126;2023-02-08T00:19:36;103221.03;;;-2.11;80.23
9141;BME280;46330;50.822;7.126;2023-02-08T00:22:05;103213.47;;;-2.09;80.43
9141;BME280;46330;50.822;7.126;2023-02-08T00:24:33;103219.16;;;-2.13;80.79
9141;BME280;46330;50.822;7.126;2023-02-08T00:27:01;103213.13;;;-2.14;81.04
9141;BME280;46330;50.822;7.126;2023-02-08T00:29:29;103219.16;;;-2.13;81.00
9141;BME280;46330;50.822;7.126;2023-02-08T00:31:57;103216.28;;;-2.18;81.75
9141;BME280;46330;50.822;7.126;2023-02-08T00:34:25;103201.97;;;-2.14;81.50
9141;BME280;46330;50.822;7.126;2023-02-08T00:36:53;103212.22;;;-2.26;81.94
9141;BME280;46330;50.822;7.126;2023-02-08T00:39:22;103209.81;;;-2.25;82.23
9141;BME280;46330;50.822;7.126;2023-02-08T00:41:50;103208.34;;;-2.21;82.31
9141;BME280;46330;50.822;7.126;2023-02-08T00:44:18;103207.56;;;-2.20;82.29
9141;BME280;46330;50.822;7.126;2023-02-08T00:46:46;103209.13;;;-2.22;82.49
9141;BME280;46330;50.822;7.126;2023-02-08T00:49:16;103215.03;;;-2.23;82.38
9141;BME280;46330;50.822;7.126;2023-02-08T00:51:44;103213.22;;;-2.24;82.54
9141;BME280;46330;50.822;7.126;2023-02-08T00:54:13;103210.22;;;-2.30;82.84
9141;BME280;46330;50.822;7.126;2023-02-08T00:56:43;103209.44;;;-2.29;82.75
9141;BME280;46330;50.822;7.126;2023-02-08T00:59:11;103207.44;;;-2.33;82.96
9141;BME280;46330;50.822;7.126;2023-02-08T01:01:40;103213.44;;;-2.33;83.52
9141;BME280;46330;50.822;7.126;2023-02-08T01:04:08;103206.66;;;-2.32;83.30
9141;BME280;46330;50.822;7.126;2023-02-08T01:06:36;103205.53;;;-2.36;83.32
9141;BME280;46330;50.822;7.126;2023-02-08T01:09:04;103203.78;;;-2.37;83.44
9141;BME280;46330;50.822;7.126;2023-02-08T01:11:32;103196.41;;;-2.32;83.42
9141;BME280;46330;50.822;7.126;2023-02-08T01:14:01;103205.75;;;-2.33;83.23
9141;BME280;46330;50.822;7.126;2023-02-08T01:16:31;103202.44;;;-2.32;83.26
9141;BME280;46330;50.822;7.126;2023-02-08T01:19:00;103204.22;;;-2.31;83.47
9141;BME280;46330;50.822;7.126;2023-02-08T01:21:30;103198.44;;;-2.40;84.04
9141;BME280;46330;50.822;7.126;2023-02-08T01:23:59;103195.59;;;-2.43;83.94
9141;BME280;46330;50.822;7.126;2023-02-08T01:26:29;103179.69;;;-2.39;84.25
9141;BME280;46330;50.822;7.126;2023-02-08T01:28:57;103188.72;;;-2.44;84.42
9141;BME280;46330;50.822;7.126;2023-02-08T01:31:29;103194.06;;;-2.52;84.05
9141;BME280;46330;50.822;7.126;2023-02-08T01:33:59;103185.47;;;-2.53;83.90
9141;BME280;46330;50.822;7.126;2023-02-08T01:36:28;103181.22;;;-2.64;84.48
9141;BME280;46330;50.822;7.126;2023-02-08T01:38:57;103189.34;;;-2.58;84.52
9141;BME280;46330;50.822;7.126;2023-02-08T01:41:26;103182.09;;;-2.63;85.01
9141;BME280;46330;50.822;7.126;2023-02-08T01:47:00;103182.56;;;-2.57;84.93
9141;BME280;46330;50.822;7.126;2023-02-08T01:49:32;103189.03;;;-2.62;85.78
9141;BME280;46330;50.822;7.126;2023-02-08T01:52:02;103177.53;;;-2.67;85.73
9141;BME280;46330;50.822;7.126;2023-02-08T01:54:35;103177.97;;;-2.73;86.29
9141;BME280;46330;50.822;7.126;2023-02-08T01:57:03;103164.69;;;-2.79;86.79
9141;BME280;46330;50.822;7.126;2023-02-08T01:59:34;103176.50;;;-2.81;86.55
9141;BME280;46330;50.822;7.126;2023-02-08T02:02:09;103174.19;;;-2.78;86.78
9141;BME280;46330;50.822;7.126;2023-02-08T02:04:38;103175.94;;;-2.77;86.61
9141;BME280;46330;50.822;7.126;2023-02-08T02:07:07;103178.63;;;-2.76;86.70
9141;BME280;46330;50.822;7.126;2023-02-08T02:09:43;103170.06;;;-2.76;86.67
9141;BME280;46330;50.822;7.126;2023-02-08T02:12:12;103176.75;;;-2.78;86.73
9141;BME280;46330;50.822;7.126;2023-02-08T02:14:41;103169.97;;;-2.78;87.05
9141;BME280;46330;50.822;7.126;2023-02-08T02:17:12;103170.72;;;-2.79;86.61
9141;BME280;46330;50.822;7.126;2023-02-08T02:19:49;103164.84;;;-2.78;86.88
9141;BME280;46330;50.822;7.126;2023-02-08T02:22:45;103170.41;;;-2.72;86.40
9141;BME280;46330;50.822;7.126;2023-02-08T02:25:43;103166.06;;;-2.73;86.63
9141;BME280;46330;50.822;7.126;2023-02-08T02:28:54;103161.06;;;-2.71;86.17
9141;BME280;46330;50.822;7.126;2023-02-08T02:31:44;103159.50;;;-2.69;86.53
9141;BME280;46330;50.822;7.126;2023-02-08T02:34:20;103161.16;;;-2.69;86.10
9141;BME280;46330;50.822;7.126;2023-02-08T02:36:58;103168.97;;;-2.68;85.95
9141;BME280;46330;50.822;7.126;2023-02-08T02:39:33;103163.19;;;-2.65;85.80
9141;BME280;46330;50.822;7.126;2023-02-08T02:42:10;103163.72;;;-2.69;85.53
9141;BME280;46330;50.822;7.126;2023-02-08T02:45:05;103161.28;;;-2.68;85.79
9141;BME280;46330;50.822;7.126;2023-02-08T02:47:40;103163.84;;;-2.68;85.91
9141;BME280;46330;50.822;7.126;2023-02-08T02:50:17;103157.72;;;-2.70;85.95
9141;BME280;46330;50.822;7.126;2023-02-08T02:52:51;103163.72;;;-2.69;85.62
9141;BME280;46330;50.822;7.126;2023-02-08T02:55:22;103162.59;;;-2.73;85.39
9141;BME280;46330;50.822;7.126;2023-02-08T02:57:53;103163.50;;;-2.73;85.67
9141;BME280;46330;50.822;7.126;2023-02-08T03:00:24;103159.81;;;-2.76;86.22
9141;BME280;46330;50.822;7.126;2023-02-08T03:02:55;103166.28;;;-2.81;86.12
9141;BME280;46330;50.822;7.126;2023-02-08T03:05:25;103163.47;;;-2.84;86.44
9141;BME280;46330;50.822;7.126;2023-02-08T03:08:04;103167.47;;;-2.88;86.86
9141;BME280;46330;50.822;7.126;2023-02-08T03:13:42;103169.91;;;-2.89;86.86
9141;BME280;46330;50.822;7.126;2023-02-08T03:16:16;103180.16;;;-2.89;87.15
9141;BME280;46330;50.822;7.126;2023-02-08T03:18:55;103168.81;;;-2.93;86.94
9141;BME280;46330;50.822;7.126;2023-02-08T03:21:32;103166.25;;;-2.93;87.12
9141;BME280;46330;50.822;7.126;2023-02-08T03:24:12;103175.13;;;-2.99;87.54
9141;BME280;46330;50.822;7.126;2023-02-08T03:26:47;103162.44;;;-2.98;87.57
9141;BME280;46330;50.822;7.126;2023-02-08T03:29:20;103178.47;;;-3.00;87.59
9141;BME280;46330;50.822;7.126;2023-02-08T03:31:55;103174.00;;;-3.03;87.77
9141;BME280;46330;50.822;7.126;2023-02-08T03:34:29;103179.22;;;-3.01;87.58
9141;BME280;46330;50.822;7.126;2023-02-08T03:37:03;103181.31;;;-3.07;87.99
9141;BME280;46330;50.822;7.126;2023-02-08T03:39:35;103174.19;;;-3.11;88.27
9141;BME280;46330;50.822;7.126;2023-02-08T03:42:09;103172.75;;;-3.08;88.56
9141;BME280;46330;50.822;7.126;2023-02-08T03:44:41;103179.41;;;-3.10;88.67
9141;BME280;46330;50.822;7.126;2023-02-08T03:47:15;103185.53;;;-3.08;88.30
9141;BME280;46330;50.822;7.126;2023-02-08T03:49:47;103180.84;;;-3.13;88.37
9141;BME280;46330;50.822;7.126;2023-02-08T03:52:18;103181.63;;;-3.14;88.39
9141;BME280;46330;50.822;7.126;2023-02-08T03:54:49;103171.50;;;-3.13;88.06
9141;BME280;46330;50.822;7.126;2023-02-08T03:57:21;103178.28;;;-3.13;88.31
9141;BME280;46330;50.822;7.126;2023-02-08T03:59:55;103173.41;;;-3.10;88.19
9141;BME280;46330;50.822;7.126;2023-02-08T04:02:27;103167.06;;;-3.15;88.15
9141;BME280;46330;50.822;7.126;2023-02-08T04:04:58;103172.75;;;-3.08;88.13
9141;BME280;46330;50.822;7.126;2023-02-08T04:07:27;103171.75;;;-3.10;87.87
9141;BME280;46330;50.822;7.126;2023-02-08T04:09:55;103162.28;;;-3.11;88.12
9141;BME280;46330;50.822;7.126;2023-02-08T04:12:23;103175.19;;;-3.09;88.32
9141;BME280;46330;50.822;7.126;2023-02-08T04:14:51;103171.50;;;-3.13;88.32
9141;BME280;46330;50.822;7.126;2023-02-08T04:17:19;103166.16;;;-3.16;88.23
9141;BME280;46330;50.822;7.126;2023-02-08T04:19:48;103164.50;;;-3.15;88.52
9141;BME280;46330;50.822;7.126;2023-02-08T04:22:17;103168.72;;;-3.16;88.37
9141;BME280;46330;50.822;7.126;2023-02-08T04:24:45;103162.59;;;-3.18;88.17
9141;BME280;46330;50.822;7.126;2023-02-08T04:27:12;103152.00;;;-3.22;88.34
9141;BME280;46330;50.822;7.126;2023-02-08T04:29:40;103161.34;;;-3.23;88.48
9141;BME280;46330;50.822;7.126;2023-02-08T04:32:08;103148.88;;;-3.30;89.02
9141;BME280;46330;50.822;7.126;2023-02-08T04:34:37;103151.72;;;-3.37;89.02
9141;BME280;46330;50.822;7.126;2023-02-08T04:37:05;103166.28;;;-3.36;89.42
9141;BME280;46330;50.822;7.126;2023-02-08T04:39:35;103159.94;;;-3.41;89.20
9141;BME280;46330;50.822;7.126;2023-02-08T04:42:03;103161.06;;;-3.38;89.26
9141;BME280;46330;50.822;7.126;2023-02-08T04:44:31;103171.41;;;-3.36;89.17
9141;BME280;46330;50.822;7.126;2023-02-08T04:46:59;103163.97;;;-3.33;88.72
9141;BME280;46330;50.822;7.126;2023-02-08T04:49:27;103170.63;;;-3.35;88.75
9141;BME280;46330;50.822;7.126;2023-02-08T04:51:55;103174.31;;;-3.32;88.74
9141;BME280;46330;50.822;7.126;2023-02-08T04:54:23;103173.00;;;-3.27;87.90
9141;BME280;46330;50.822;7.126;2023-02-08T04:56:52;103176.34;;;-3.28;87.25
9141;BME280;46330;50.822;7.126;2023-02-08T04:59:20;103155.31;;;-3.23;87.04
9141;BME280;46330;50.822;7.126;2023-02-08T05:01:48;103165.56;;;-3.23;87.53
9141;BME280;46330;50.822;7.126;2023-02-08T05:04:16;103166.47;;;-3.23;86.98
9141;BME280;46330;50.822;7.126;2023-02-08T05:06:43;103164.94;;;-3.21;87.37
9141;BME280;46330;50.822;7.126;2023-02-08T05:09:14;103166.59;;;-3.21;86.78
9141;BME280;46330;50.822;7.126;2023-02-08T05:11:43;103165.69;;;-3.22;87.24
9141;BME280;46330;50.822;7.126;2023-02-08T05:14:12;103170.69;;;-3.23;87.32
9141;BME280;46330;50.822;7.126;2023-02-08T05:16:40;103170.69;;;-3.23;87.20
9141;BME280;46330;50.822;7.126;2023-02-08T05:19:08;103169.81;;;-3.24;87.00
9141;BME280;46330;50.822;7.126;2023-02-08T05:21:36;103172.53;;;-3.33;87.88
9141;BME280;46330;50.822;7.126;2023-02-08T05:24:05;103182.53;;;-3.36;87.55
9141;BME280;46330;50.822;7.126;2023-02-08T05:26:33;103177.31;;;-3.37;88.26
9141;BME280;46330;50.822;7.126;2023-02-08T05:29:01;103165.94;;;-3.41;87.85
9141;BME280;46330;50.822;7.126;2023-02-08T05:31:30;103172.63;;;-3.43;88.07
9141;BME280;46330;50.822;7.126;2023-02-08T05:33:58;103175.94;;;-3.44;88.17
9141;BME280;46330;50.822;7.126;2023-02-08T05:36:26;103175.94;;;-3.44;88.45
9141;BME280;46330;50.822;7.126;2023-02-08T05:38:54;103166.47;;;-3.45;87.94
9141;BME280;46330;50.822;7.126;2023-02-08T05:41:22;103174.81;;;-3.47;88.60
9141;BME280;46330;50.822;7.126;2023-02-08T05:43:51;103177.78;;;-3.53;88.28
9141;BME280;46330;50.822;7.126;2023-02-08T05:46:19;103174.56;;;-3.50;88.36
9141;BME280;46330;50.822;7.126;2023-02-08T05:48:48;103177.50;;;-3.46;87.98
9141;BME280;46330;50.822;7.126;2023-02-08T05:51:16;103171.06;;;-3.41;87.37
9141;BME280;46330;50.822;7.126;2023-02-08T05:53:47;103179.63;;;-3.40;86.99
9141;BME280;46330;50.822;7.126;2023-02-08T05:56:15;103169.41;;;-3.40;86.75
9141;BME280;46330;50.822;7.126;2023-02-08T05:58:43;103182.19;;;-3.40;87.03
9141;BME280;46330;50.822;7.126;2023-02-08T06:01:12;103179.63;;;-3.40;86.95
9141;BME280;46330;50.822;7.126;2023-02-08T06:03:40;103177.97;;;-3.40;86.55
9141;BME280;46330;50.822;7.126;2023-02-08T06:06:10;103183.09;;;-3.40;86.76
9141;BME280;46330;50.822;7.126;2023-02-08T06:08:38;103175.94;;;-3.44;87.04
9141;BME280;46330;50.822;7.126;2023-02-08T06:11:06;103172.38;;;-3.46;86.42
9141;BME280;46330;50.822;7.126;2023-02-08T06:13:34;103163.69;;;-3.48;86.28
9141;BME280;46330;50.822;7.126;2023-02-08T06:16:02;103168.69;;;-3.49;86.50
9141;BME280;46330;50.822;7.126;2023-02-08T06:18:30;103181.59;;;-3.48;86.28
9141;BME280;46330;50.822;7.126;2023-02-08T06:20:58;103172.16;;;-3.49;86.51
9141;BME280;46330;50.822;7.126;2023-02-08T06:23:27;103173.00;;;-3.48;86.48
9141;BME280;46330;50.822;7.126;2023-02-08T06:25:55;103179.25;;;-3.45;86.64
9141;BME280;46330;50.822;7.126;2023-02-08T06:28:23;103181.06;;;-3.44;85.92
9141;BME280;46330;50.822;7.126;2023-02-08T06:30:51;103180.06;;;-3.46;85.86
9141;BME280;46330;50.822;7.126;2023-02-08T06:33:19;103173.38;;;-3.44;85.62
9141;BME280;46330;50.822;7.126;2023-02-08T06:35:50;103180.91;;;-3.45;85.63
9141;BME280;46330;50.822;7.126;2023-02-08T06:38:18;103184.50;;;-3.43;86.13
9141;BME280;46330;50.822;7.126;2023-02-08T06:40:48;103181.97;;;-3.43;85.34
9141;BME280;46330;50.822;7.126;2023-02-08T06:43:17;103178.38;;;-3.45;85.96
9141;BME280;46330;50.822;7.126;2023-02-08T06:45:46;103179.25;;;-3.45;85.98
9141;BME280;46330;50.822;7.126;2023-02-08T06:48:14;103187.97;;;-3.43;85.85
9141;BME280;46330;50.822;7.126;2023-02-08T06:50:42;103180.91;;;-3.45;86.02
9141;BME280;46330;50.822;7.126;2023-02-08T06:53:10;103187.06;;;-3.43;85.89
9141;BME280;46330;50.822;7.126;2023-02-08T06:55:38;103193.19;;;-3.41;85.64
9141;BME280;46330;50.822;7.126;2023-02-08T06:58:07;103196.50;;;-3.42;86.04
9141;BME280;46330;50.822;7.126;2023-02-08T07:00:35;103179.25;;;-3.45;86.12
9141;BME280;46330;50.822;7.126;2023-02-08T07:03:05;103192.19;;;-3.43;85.88
9141;BME280;46330;50.822;7.126;2023-02-08T07:05:33;103189.63;;;-3.43;85.94
9141;BME280;46330;50.822;7.126;2023-02-08T07:08:02;103180.91;;;-3.45;85.73
9141;BME280;46330;50.822;7.126;2023-02-08T07:10:30;103189.50;;;-3.45;86.07
9141;BME280;46330;50.822;7.126;2023-02-08T07:12:58;103183.38;;;-3.47;85.73
9141;BME280;46330;50.822;7.126;2023-02-08T07:15:29;103181.06;;;-3.44;86.14
9141;BME280;46330;50.822;7.126;2023-02-08T07:17:57;103182.97;;;-3.41;86.13
9141;BME280;46330;50.822;7.126;2023-02-08T07:20:25;103180.41;;;-3.41;85.66
9141;BME280;46330;50.822;7.126;2023-02-08T07:22:53;103169.25;;;-3.42;85.77
9141;BME280;46330;50.822;7.126;2023-02-08T07:25:22;103172.06;;;-3.39;85.93
9141;BME280;46330;50.822;7.126;2023-02-08T07:27:49;103160.84;;;-3.41;85.48
9141;BME280;46330;50.822;7.126;2023-02-08T07:30:18;103158.78;;;-3.23;85.26
9141;BME280;46330;50.822;7.126;2023-02-08T07:32:47;103161.66;;;-2.97;84.04
9141;BME280;46330;50.822;7.126;2023-02-08T07:35:15;103150.56;;;-2.86;83.36
9141;BME280;46330;50.822;7.126;2023-02-08T07:37:43;103150.47;;;-2.64;82.81
9141;BME280;46330;50.822;7.126;2023-02-08T07:40:11;103154.16;;;-2.14;80.75
9141;BME280;46330;50.822;7.126;2023-02-08T07:42:38;103151.53;;;-1.56;78.37
9141;BME280;46330;50.822;7.126;2023-02-08T07:45:18;103150.00;;;-1.41;76.39
9141;BME280;46330;50.822;7.126;2023-02-08T07:47:47;103156.41;;;-0.98;74.09
9141;BME280;46330;50.822;7.126;2023-02-08T07:50:15;103145.91;;;-0.63;72.72
9141;BME280;46330;50.822;7.126;2023-02-08T07:52:43;103152.56;;;-0.53;71.53
9141;BME280;46330;50.822;7.126;2023-02-08T07:55:14;103155.91;;;-0.02;70.07
9141;BME280;46330;50.822;7.126;2023-02-08T07:57:43;103156.59;;;-0.05;69.29
9141;BME280;46330;50.822;7.126;2023-02-08T08:00:12;103152.16;;;0.47;68.00
9141;BME280;46330;50.822;7.126;2023-02-08T08:02:40;103146.50;;;0.52;66.94
9141;BME280;46330;50.822;7.126;2023-02-08T08:05:10;103143.28;;;0.29;67.09
9141;BME280;46330;50.822;7.126;2023-02-08T08:07:38;103152.03;;;0.59;66.05
9141;BME280;46330;50.822;7.126;2023-02-08T08:10:06;103145.25;;;0.88;64.68
9141;BME280;46330;50.822;7.126;2023-02-08T08:12:34;103151.69;;;0.95;64.54
9141;BME280;46330;50.822;7.126;2023-02-08T08:15:02;103139.16;;;1.01;62.88
9141;BME280;46330;50.822;7.126;2023-02-08T08:17:30;103128.41;;;1.37;62.52
9141;BME280;46330;50.822;7.126;2023-02-08T08:19:58;103145.56;;;1.66;61.42
9141;BME280;46330;50.822;7.126;2023-02-08T08:22:27;103142.63;;;1.60;59.62
9141;BME280;46330;50.822;7.126;2023-02-08T08:24:56;103135.59;;;2.17;59.17
9141;BME280;46330;50.822;7.126;2023-02-08T08:27:24;103134.31;;;1.95;58.19
9141;BME280;46330;50.822;7.126;2023-02-08T08:29:52;103132.97;;;2.48;58.16
9141;BME280;46330;50.822;7.126;2023-02-08T08:32:20;103133.19;;;2.21;57.09
9141;BME280;46330;50.822;7.126;2023-02-08T08:34:48;103136.28;;;2.46;56.39
9141;BME280;46330;50.822;7.126;2023-02-08T08:37:15;103126.25;;;2.68;55.75
9141;BME280;46330;50.822;7.126;2023-02-08T08:39:45;103131.53;;;2.69;55.49
9141;BME280;46330;50.822;7.126;2023-02-08T08:42:12;103139.66;;;2.45;55.16
9141;BME280;46330;50.822;7.126;2023-02-08T08:44:40;103132.75;;;2.13;56.24
9141;BME280;46330;50.822;7.126;2023-02-08T08:47:08;103125.50;;;2.22;56.31
9141;BME280;46330;50.822;7.126;2023-02-08T08:49:36;103130.16;;;2.76;55.60
9141;BME280;46330;50.822;7.126;2023-02-08T08:52:04;103126.09;;;2.81;54.73
9141;BME280;46330;50.822;7.126;2023-02-08T08:54:33;103121.34;;;2.89;54.71
9141;BME280;46330;50.822;7.126;2023-02-08T08:57:03;103121.03;;;2.66;54.95
9141;BME280;46330;50.822;7.126;2023-02-08T08:59:31;103122.50;;;3.11;53.67
9141;BME280;46330;50.822;7.126;2023-02-08T09:01:59;103130.34;;;3.13;53.18
9141;BME280;46330;50.822;7.126;2023-02-08T09:04:27;103120.72;;;3.27;53.72
9141;BME280;46330;50.822;7.126;2023-02-08T09:06:55;103132.50;;;3.21;52.68
9141;BME280;46330;50.822;7.126;2023-02-08T09:09:23;103127.75;;;3.13;52.40
9141;BME280;46330;50.822;7.126;2023-02-08T09:11:51;103124.53;;;3.01;52.56
9141;BME280;46330;50.822;7.126;2023-02-08T09:14:20;103126.66;;;3.08;52.51
9141;BME280;46330;50.822;7.126;2023-02-08T09:16:48;103127.41;;;3.23;51.93
9141;BME280;46330;50.822;7.126;2023-02-08T09:19:16;103124.88;;;3.24;52.11
9141;BME280;46330;50.822;7.126;2023-02-08T09:21:44;103122.69;;;3.32;50.85
9141;BME280;46330;50.822;7.126;2023-02-08T09:24:12;103118.66;;;4.08;49.76
9141;BME280;46330;50.822;7.126;2023-02-08T09:26:40;103125.69;;;4.10;48.01
9141;BME280;46330;50.822;7.126;2023-02-08T09:29:07;103134.06;;;3.52;48.80
9141;BME280;46330;50.822;7.126;2023-02-08T09:31:37;103120.34;;;4.07;48.61
9141;BME280;46330;50.822;7.126;2023-02-08T09:34:05;103116.34;;;3.96;47.71
9141;BME280;46330;50.822;7.126;2023-02-08T09:36:35;103117.38;;;4.00;47.55
9141;BME280;46330;50.822;7.126;2023-02-08T09:39:06;103120.31;;;4.25;46.40
9141;BME280;46330;50.822;7.126;2023-02-08T09:41:55;103118.66;;;4.27;46.42
9141;BME280;46330;50.822;7.126;2023-02-08T09:44:31;103119.47;;;4.82;45.08
9141;BME280;46330;50.822;7.126;2023-02-08T09:47:09;103114.91;;;5.16;43.59
9141;BME280;46330;50.822;7.126;2023-02-08T09:49:45;103117.06;;;5.68;43.09
9141;BME280;46330;50.822;7.126;2023-02-08T09:52:20;103118.00;;;5.70;42.74
9141;BME280;46330;50.822;7.126;2023-02-08T09:54:53;103113.59;;;6.10;42.10
9141;BME280;46330;50.822;7.126;2023-02-08T09:57:28;103105.53;;;5.82;42.19
9141;BME280;46330;50.822;7.126;2023-02-08T10:00:03;103108.19;;;5.63;42.17
9141;BME280;46330;50.822;7.126;2023-02-08T10:02:34;103100.78;;;6.15;41.25
9141;BME280;46330;50.822;7.126;2023-02-08T10:05:04;103093.63;;;6.79;40.82
9141;BME280;46330;50.822;7.126;2023-02-08T10:07:33;103098.50;;;6.46;39.82
9141;BME280;46330;50.822;7.126;2023-02-08T10:10:03;103092.66;;;5.85;40.61
9141;BME280;46330;50.822;7.126;2023-02-08T10:12:37;103099.84;;;5.90;41.45
9141;BME280;46330;50.822;7.126;2023-02-08T10:15:13;103100.97;;;6.19;40.54
9141;BME280;46330;50.822;7.126;2023-02-08T10:18:04;103082.22;;;6.28;39.89
9141;BME280;46330;50.822;7.126;2023-02-08T10:20:43;103095.56;;;6.61;39.26
9141;BME280;46330;50.822;7.126;2023-02-08T10:23:22;103099.53;;;6.27;38.20
9141;BME280;46330;50.822;7.126;2023-02-08T10:26:12;103105.56;;;6.97;37.71
9141;BME280;46330;50.822;7.126;2023-02-08T10:29:06;103096.72;;;7.43;37.39
9141;BME280;46330;50.822;7.126;2023-02-08T10:32:04;103100.25;;;7.98;35.60
9141;BME280;46330;50.822;7.126;2023-02-08T10:34:41;103100.25;;;7.20;36.39
9141;BME280;46330;50.822;7.126;2023-02-08T10:37:13;103094.41;;;7.25;36.65
9141;BME280;46330;50.822;7.126;2023-02-08T10:39:41;103082.09;;;8.01;35.85
9141;BME280;46330;50.822;7.126;2023-02-08T10:42:13;103088.53;;;8.13;35.30
9141;BME280;46330;50.822;7.126;2023-02-08T10:44:59;103083.34;;;7.86;35.10
9141;BME280;46330;50.822;7.126;2023-02-08T10:47:51;103082.97;;;8.02;34.73
9141;BME280;46330;50.822;7.126;2023-02-08T10:50:24;103084.75;;;8.03;34.40
9141;BME280;46330;50.822;7.126;2023-02-08T10:52:56;103081.72;;;7.89;34.74
9141;BME280;46330;50.822;7.126;2023-02-08T10:55:24;103072.56;;;8.30;33.17
9141;BME280;46330;50.822;7.126;2023-02-08T10:57:57;103069.59;;;7.63;33.74
9141;BME280;46330;50.822;7.126;2023-02-08T11:00:28;103056.50;;;7.35;34.48
9141;BME280;46330;50.822;7.126;2023-02-08T11:03:00;103056.22;;;8.07;33.85
9141;BME280;46330;50.822;7.126;2023-02-08T11:05:33;103059.22;;;8.49;32.86
9141;BME280;46330;50.822;7.126;2023-02-08T11:08:05;103055.59;;;7.33;33.94
9141;BME280;46330;50.822;7.126;2023-02-08T11:10:34;103054.84;;;7.64;34.07
9141;BME280;46330;50.822;7.126;2023-02-08T11:13:06;103053.88;;;7.60;34.08
9141;BME280;46330;50.822;7.126;2023-02-08T11:15:45;103048.22;;;7.73;33.24
9141;BME280;46330;50.822;7.126;2023-02-08T11:18:20;103045.75;;;8.06;32.81
9141;BME280;46330;50.822;7.126;2023-02-08T11:20:51;103047.56;;;8.37;30.25
9141;BME280;46330;50.822;7.126;2023-02-08T11:23:25;103047.09;;;8.51;30.06
9141;BME280;46330;50.822;7.126;2023-02-08T11:25:54;103033.97;;;8.19;29.56
9141;BME280;46330;50.822;7.126;2023-02-08T11:28:39;103041.66;;;8.14;29.52
9141;BME280;46330;50.822;7.126;2023-02-08T11:31:15;103035.44;;;8.09;29.93
9141;BME280;46330;50.822;7.126;2023-02-08T11:33:58;103027.34;;;8.00;29.79
9141;BME280;46330;50.822;7.126;2023-02-08T11:36:29;103031.44;;;8.22;29.15
9141;BME280;46330;50.822;7.126;2023-02-08T11:39:00;103030.88;;;7.74;28.48
9141;BME280;46330;50.822;7.126;2023-02-08T11:41:28;103021.59;;;8.41;27.85
9141;BME280;46330;50.822;7.126;2023-02-08T11:43:59;103026.75;;;7.82;27.79
9141;BME280;46330;50.822;7.126;2023-02-08T11:46:31;103020.00;;;7.88;28.29
9141;BME280;46330;50.822;7.126;2023-02-08T11:49:00;103028.47;;;8.09;28.12
9141;BME280;46330;50.822;7.126;2023-02-08T11:51:32;103014.50;;;8.07;28.39
9141;BME280;46330;50.822;7.126;2023-02-08T11:54:02;103000.69;;;8.10;28.42
9141;BME280;46330;50.822;7.126;2023-02-08T11:56:31;103006.16;;;8.49;27.69
9141;BME280;46330;50.822;7.126;2023-02-08T11:59:15;102998.25;;;7.86;28.43
9141;BME280;46330;50.822;7.126;2023-02-08T12:01:44;103004.88;;;8.05;28.35
9141;BME280;46330;50.822;7.126;2023-02-08T12:04:13;102994.28;;;8.60;28.04
9141;BME280;46330;50.822;7.126;2023-02-08T12:07:05;102997.78;;;8.93;27.65
9141;BME280;46330;50.822;7.126;2023-02-08T12:10:00;102997.28;;;8.74;27.59
9141;BME280;46330;50.822;7.126;2023-02-08T12:12:42;103005.25;;;9.14;27.14
9141;BME280;46330;50.822;7.126;2023-02-08T12:15:21;102979.22;;;9.54;26.21
9141;BME280;46330;50.822;7.126;2023-02-08T12:18:08;102981.16;;;9.24;26.61
9141;BME280;46330;50.822;7.126;2023-02-08T12:20:43;102975.94;;;9.26;26.96
9141;BME280;46330;50.822;7.126;2023-02-08T12:23:48;102969.91;;;9.28;26.51
9141;BME280;46330;50.822;7.126;2023-02-08T12:26:22;102968.72;;;9.51;26.50
9141;BME280;46330;50.822;7.126;2023-02-08T12:29:04;102977.53;;;8.83;26.51
9141;BME280;46330;50.822;7.126;2023-02-08T12:31:44;102965.13;;;9.09;27.06
9141;BME280;46330;50.822;7.126;2023-02-08T12:34:19;102951.13;;;9.07;27.30
9141;BME280;46330;50.822;7.126;2023-02-08T12:36:59;102957.56;;;8.85;26.83
9141;BME280;46330;50.822;7.126;2023-02-08T12:39:58;102955.25;;;8.97;27.59
9141;BME280;46330;50.822;7.126;2023-02-08T12:42:56;102949.84;;;8.55;27.12
9141;BME280;46330;50.822;7.126;2023-02-08T12:45:42;102948.44;;;9.02;27.12
9141;BME280;46330;50.822;7.126;2023-02-08T12:48:27;102937.09;;;9.39;26.84
9141;BME280;46330;50.822;7.126;2023-02-08T12:51:02;102933.53;;;9.76;26.71
9141;BME280;46330;50.822;7.126;2023-02-08T12:53:36;102927.06;;;9.59;26.88
9141;BME280;46330;50.822;7.126;2023-02-08T12:56:11;102929.41;;;9.08;26.69
9141;BME280;46330;50.822;7.126;2023-02-08T12:58:43;102935.13;;;9.68;27.76
9141;BME280;46330;50.822;7.126;2023-02-08T13:01:16;102916.47;;;9.51;25.97
9141;BME280;46330;50.822;7.126;2023-02-08T13:03:48;102915.19;;;9.33;27.06
9141;BME280;46330;50.822;7.126;2023-02-08T13:06:21;102910.56;;;9.21;26.89
9141;BME280;46330;50.822;7.126;2023-02-08T13:08:55;102901.66;;;9.13;25.63
9141;BME280;46330;50.822;7.126;2023-02-08T13:11:33;102913.28;;;9.26;27.58
9141;BME280;46330;50.822;7.126;2023-02-08T13:14:09;102909.63;;;9.19;26.34
9141;BME280;46330;50.822;7.126;2023-02-08T13:16:41;102897.81;;;8.96;26.89
9141;BME280;46330;50.822;7.126;2023-02-08T13:19:24;102900.72;;;9.48;26.92
9141;BME280;46330;50.822;7.126;2023-02-08T13:21:53;102911.56;;;9.26;27.35
9141;BME280;46330;50.822;7.126;2023-02-08T13:24:27;102905.13;;;9.51;26.36
9141;BME280;46330;50.822;7.126;2023-02-08T13:26:59;102898.56;;;9.69;26.21
9141;BME280;46330;50.822;7.126;2023-02-08T13:29:29;102892.31;;;9.63;25.78
9141;BME280;46330;50.822;7.126;2023-02-08T13:32:02;102886.13;;;9.58;26.57
9141;BME280;46330;50.822;7.126;2023-02-08T13:34:35;102889.63;;;9.58;26.37
9141;BME280;46330;50.822;7.126;2023-02-08T13:37:15;102885.19;;;9.15;26.77